Terminal Aerodrome Forecast
Issued by NWS Sterling, VA

Current Version | Previous Version | Graphics & Text | Print | Product List | Glossary On
Versions: 1 2 3 4 5 6 7 8 9 10 11 12 13 14 15 16 17 18 19 20 21
823
FTUS41 KLWX 051736
TAFDCA
TAF
KDCA 051736Z 0518/0618 32016G28KT P6SM BKN045
     FM052000 31014G22KT P6SM SCT045
     FM052200 31011KT P6SM FEW250
     FM060200 32007KT P6SM FEW250
     FM060800 VRB03KT P6SM FEW250=

USA.gov is the U.S. government's official web portal to all federal, state and local government web resources and services.